createdAt,value
2018-03-25T00:00:18.236Z,2.76
2018-03-25T00:02:45.880Z,2.55
2018-03-25T00:05:13.508Z,2.51
2018-03-25T00:07:41.105Z,2.48
2018-03-25T00:10:09.155Z,2.58
2018-03-25T00:12:36.751Z,2.71
2018-03-25T00:15:04.378Z,2.70
2018-03-25T00:17:32.002Z,2.69
2018-03-25T00:20:00.070Z,2.64
2018-03-25T00:22:27.672Z,2.65
2018-03-25T00:24:55.272Z,3.13
2018-03-25T00:27:22.906Z,2.90
2018-03-25T00:29:50.508Z,2.70
2018-03-25T00:32:19.920Z,2.55
2018-03-25T00:34:48.144Z,2.52
2018-03-25T00:37:15.804Z,3.10
2018-03-25T00:39:43.443Z,3.31
2018-03-25T00:42:11.035Z,3.18
2018-03-25T00:44:38.672Z,3.33
2018-03-25T00:47:06.272Z,3.40
2018-03-25T00:49:33.890Z,3.37
2018-03-25T00:52:01.799Z,3.01
2018-03-25T00:54:29.491Z,2.49
2018-03-25T00:56:57.091Z,2.27
2018-03-25T00:59:24.677Z,2.53
2018-03-25T01:01:52.315Z,2.27
2018-03-25T01:04:20.004Z,2.24
2018-03-25T01:06:47.877Z,2.22
2018-03-25T01:09:16.414Z,2.39
2018-03-25T01:11:44.021Z,2.69
2018-03-25T01:14:13.026Z,2.57
2018-03-25T01:16:40.674Z,2.42
2018-03-25T01:19:08.403Z,2.88
2018-03-25T01:21:36.369Z,3.01
2018-03-25T01:24:04.101Z,3.10
2018-03-25T01:26:31.697Z,3.05
2018-03-25T01:28:59.413Z,3.10
2018-03-25T01:31:27.241Z,3.10
2018-03-25T01:33:54.876Z,2.88
2018-03-25T01:36:22.546Z,2.50
2018-03-25T01:38:50.171Z,2.99
2018-03-25T01:41:17.778Z,2.63
2018-03-25T01:43:45.440Z,2.58
2018-03-25T01:46:13.031Z,2.40
2018-03-25T01:48:40.701Z,2.59
2018-03-25T01:51:08.493Z,2.40
2018-03-25T01:53:36.213Z,2.52
2018-03-25T01:56:03.889Z,2.76
2018-03-25T01:58:31.494Z,2.70
2018-03-25T02:00:59.091Z,2.56
2018-03-25T02:03:26.725Z,2.56
2018-03-25T02:05:54.363Z,2.69
2018-03-25T02:08:21.980Z,2.38
2018-03-25T02:10:49.616Z,2.10
2018-03-25T02:13:17.251Z,2.31
2018-03-25T02:15:44.842Z,2.21
2018-03-25T02:18:12.496Z,2.52
2018-03-25T02:20:41.078Z,2.77
2018-03-25T02:23:09.058Z,2.18
2018-03-25T02:25:36.650Z,2.35
2018-03-25T02:28:04.242Z,2.18
2018-03-25T02:30:31.908Z,1.85
2018-03-25T02:32:59.531Z,2.26
2018-03-25T02:35:27.135Z,2.56
2018-03-25T02:37:55.120Z,2.55
2018-03-25T02:40:22.739Z,2.69
2018-03-25T02:42:50.346Z,2.78
2018-03-25T02:45:18.000Z,2.60
2018-03-25T02:47:46.028Z,2.27
2018-03-25T02:50:14.038Z,2.27
2018-03-25T02:52:41.714Z,2.62
2018-03-25T02:55:09.450Z,3.06
2018-03-25T02:57:37.269Z,3.00
2018-03-25T03:00:05.034Z,3.33
2018-03-25T03:02:32.756Z,3.33
2018-03-25T03:05:00.346Z,3.18
2018-03-25T03:07:27.980Z,3.09
2018-03-25T03:09:55.622Z,3.21
2018-03-25T03:12:23.214Z,3.40
2018-03-25T03:14:50.895Z,3.83
2018-03-25T03:17:18.524Z,3.83
2018-03-25T03:19:46.132Z,3.87
2018-03-25T03:22:13.822Z,3.64
2018-03-25T03:24:41.433Z,3.50
2018-03-25T03:27:09.022Z,3.67
2018-03-25T03:29:37.156Z,3.82
2018-03-25T03:32:04.832Z,3.85
2018-03-25T03:34:32.606Z,4.12
2018-03-25T03:37:00.222Z,4.32
2018-03-25T03:39:27.963Z,4.29
2018-03-25T03:41:55.715Z,4.42
2018-03-25T03:44:23.316Z,4.40
2018-03-25T03:46:51.359Z,4.56
2018-03-25T03:49:18.972Z,4.35
2018-03-25T03:51:46.567Z,4.24
2018-03-25T03:54:14.232Z,4.15
2018-03-25T03:56:41.982Z,4.35
2018-03-25T03:59:09.574Z,4.50
2018-03-25T04:01:37.205Z,4.62
2018-03-25T04:04:04.914Z,4.86
2018-03-25T04:06:32.547Z,4.84
2018-03-25T04:09:00.150Z,4.97
2018-03-25T04:11:28.149Z,5.12
2018-03-25T04:13:55.928Z,4.96
2018-03-25T04:16:23.602Z,5.04
2018-03-25T04:18:51.273Z,5.01
2018-03-25T04:21:18.945Z,5.02
2018-03-25T04:23:46.696Z,4.98
2018-03-25T04:26:14.404Z,4.87
2018-03-25T04:28:42.184Z,4.99
2018-03-25T04:31:09.854Z,5.07
2018-03-25T04:33:37.533Z,4.89
2018-03-25T04:36:05.134Z,5.06
2018-03-25T04:38:32.886Z,4.90
2018-03-25T04:41:00.665Z,4.89
2018-03-25T04:43:28.259Z,4.99
2018-03-25T04:45:56.096Z,4.92
2018-03-25T04:48:23.898Z,4.85
2018-03-25T04:50:51.571Z,4.75
2018-03-25T04:53:19.239Z,4.86
2018-03-25T04:55:46.924Z,4.88
2018-03-25T04:58:14.805Z,4.79
2018-03-25T05:00:42.472Z,4.71
2018-03-25T05:03:10.254Z,4.82
2018-03-25T05:05:38.037Z,4.67
2018-03-25T05:08:05.695Z,4.74
2018-03-25T05:10:33.477Z,4.87
2018-03-25T05:13:01.226Z,4.69
2018-03-25T05:15:28.893Z,4.64
2018-03-25T05:17:56.616Z,4.83
2018-03-25T05:20:24.290Z,4.68
2018-03-25T05:22:51.874Z,4.90
2018-03-25T05:25:19.608Z,4.85
2018-03-25T05:27:47.312Z,4.71
2018-03-25T05:30:14.986Z,4.60
2018-03-25T05:32:42.664Z,4.84
2018-03-25T05:35:10.393Z,4.74
2018-03-25T05:37:38.227Z,4.64
2018-03-25T05:40:05.827Z,4.68
2018-03-25T05:42:33.562Z,4.64
2018-03-25T05:45:01.355Z,4.42
2018-03-25T05:47:29.023Z,4.71
2018-03-25T05:49:56.810Z,4.89
2018-03-25T05:52:24.996Z,4.55
2018-03-25T05:54:52.663Z,4.69
2018-03-25T05:57:20.248Z,4.80
2018-03-25T05:59:47.919Z,4.80
2018-03-25T06:02:15.593Z,4.83
2018-03-25T06:04:43.372Z,4.49
2018-03-25T06:07:11.041Z,4.81
2018-03-25T06:09:38.779Z,4.92
2018-03-25T06:12:06.445Z,4.81
2018-03-25T06:14:34.168Z,4.97
2018-03-25T06:17:01.750Z,4.95
2018-03-25T06:19:29.431Z,4.96
2018-03-25T06:21:57.100Z,5.14
2018-03-25T06:24:24.886Z,5.08
2018-03-25T06:26:52.763Z,5.45
2018-03-25T06:29:20.422Z,5.49
2018-03-25T06:31:48.214Z,5.61
2018-03-25T06:34:16.472Z,5.79
2018-03-25T06:36:44.136Z,5.73
2018-03-25T06:39:11.751Z,5.93
2018-03-25T06:41:39.803Z,5.91
2018-03-25T06:44:07.498Z,5.91
2018-03-25T06:46:35.291Z,6.11
2018-03-25T06:49:03.171Z,6.15
2018-03-25T06:51:30.955Z,5.91
2018-03-25T06:53:58.677Z,5.94
2018-03-25T06:56:26.505Z,5.68
2018-03-25T06:58:54.178Z,6.58
2018-03-25T07:01:21.959Z,6.68
2018-03-25T07:03:49.840Z,6.64
2018-03-25T07:06:17.432Z,6.46
2018-03-25T07:08:45.190Z,6.81
2018-03-25T07:11:12.850Z,6.90
2018-03-25T07:13:40.642Z,6.63
2018-03-25T07:16:08.422Z,7.14
2018-03-25T07:18:36.199Z,7.06
2018-03-25T07:21:03.873Z,6.99
2018-03-25T07:23:31.653Z,7.24
2018-03-25T07:25:59.436Z,7.21
2018-03-25T07:28:27.159Z,7.66
2018-03-25T07:30:54.874Z,7.29
2018-03-25T07:33:22.617Z,7.62
2018-03-25T07:35:50.444Z,7.44
2018-03-25T07:38:18.116Z,7.31
2018-03-25T07:40:45.784Z,7.36
2018-03-25T07:43:13.781Z,7.02
2018-03-25T07:45:41.499Z,7.78
2018-03-25T07:48:09.229Z,8.17
2018-03-25T07:50:36.901Z,8.17
2018-03-25T07:53:04.989Z,8.42
2018-03-25T07:55:32.716Z,8.43
2018-03-25T07:58:00.430Z,8.42
2018-03-25T08:00:28.629Z,8.61
2018-03-25T08:02:56.221Z,8.58
2018-03-25T08:05:23.810Z,8.65
2018-03-25T08:07:51.444Z,9.04
2018-03-25T08:10:19.273Z,8.42
2018-03-25T08:12:48.028Z,8.51
2018-03-25T08:15:15.677Z,7.98
2018-03-25T08:17:43.482Z,8.61
2018-03-25T08:20:11.156Z,8.33
2018-03-25T08:22:38.818Z,8.79
2018-03-25T08:25:06.509Z,8.44
2018-03-25T08:27:34.562Z,8.28
2018-03-25T08:30:02.373Z,9.14
2018-03-25T08:32:30.047Z,9.24
2018-03-25T08:34:57.782Z,9.10
2018-03-25T08:37:25.388Z,8.45
2018-03-25T08:39:53.416Z,9.88
2018-03-25T08:42:21.164Z,10.11
2018-03-25T08:44:49.242Z,9.13
2018-03-25T08:47:17.016Z,9.97
2018-03-25T08:49:44.801Z,10.11
2018-03-25T08:52:12.531Z,10.31
2018-03-25T08:54:40.182Z,10.21
2018-03-25T08:57:08.148Z,10.04
2018-03-25T08:59:35.811Z,10.32
2018-03-25T09:02:03.584Z,10.21
2018-03-25T09:04:31.256Z,9.68
2018-03-25T09:06:58.937Z,9.18
2018-03-25T09:09:26.562Z,10.34
2018-03-25T09:11:54.281Z,10.68
2018-03-25T09:14:22.169Z,10.69
2018-03-25T09:16:49.949Z,10.67
2018-03-25T09:19:17.725Z,9.99
2018-03-25T09:21:45.416Z,9.51
2018-03-25T09:24:13.047Z,9.29
2018-03-25T09:26:40.753Z,9.74
2018-03-25T09:29:08.402Z,9.47
2018-03-25T09:31:36.053Z,9.84
2018-03-25T09:34:03.707Z,9.82
2018-03-25T09:36:31.316Z,10.34
2018-03-25T09:38:58.915Z,10.64
2018-03-25T09:41:26.579Z,10.73
2018-03-25T09:43:54.194Z,10.65
2018-03-25T09:46:21.808Z,11.36
2018-03-25T09:48:49.448Z,11.11
2018-03-25T09:51:17.098Z,11.78
2018-03-25T09:53:44.701Z,11.78
2018-03-25T09:56:12.351Z,11.95
2018-03-25T09:58:40.090Z,13.12
2018-03-25T10:01:13.335Z,11.85
2018-03-25T10:03:40.989Z,12.35
2018-03-25T10:06:08.625Z,12.86
2018-03-25T10:08:36.299Z,12.85
2018-03-25T10:11:03.938Z,12.43
2018-03-25T10:13:31.710Z,12.49
2018-03-25T10:15:59.376Z,12.54
2018-03-25T10:18:27.064Z,12.37
2018-03-25T10:20:54.650Z,12.85
2018-03-25T10:23:22.244Z,12.63
2018-03-25T10:25:49.980Z,12.51
2018-03-25T10:28:17.725Z,13.42
2018-03-25T10:30:45.736Z,12.95
2018-03-25T10:33:13.525Z,11.93
2018-03-25T10:35:41.197Z,13.10
2018-03-25T10:38:08.902Z,13.20
2018-03-25T10:40:36.640Z,12.67
2018-03-25T10:43:04.251Z,12.91
2018-03-25T10:45:32.003Z,12.76
2018-03-25T10:47:59.780Z,13.31
2018-03-25T10:50:27.375Z,12.53
2018-03-25T10:52:54.993Z,12.77
2018-03-25T10:55:22.695Z,12.08
2018-03-25T10:57:50.483Z,11.98
2018-03-25T11:00:18.262Z,12.50
2018-03-25T11:02:45.851Z,12.42
2018-03-25T11:05:13.511Z,12.51
2018-03-25T11:07:41.167Z,12.43
2018-03-25T11:10:09.269Z,12.65
2018-03-25T11:12:37.048Z,12.81
2018-03-25T11:15:04.719Z,12.61
2018-03-25T11:17:32.499Z,12.19
2018-03-25T11:20:00.103Z,12.61
2018-03-25T11:22:27.815Z,12.97
2018-03-25T11:24:55.684Z,12.23
2018-03-25T11:27:23.512Z,12.15
2018-03-25T11:29:51.291Z,12.24
2018-03-25T11:32:18.881Z,12.93
2018-03-25T11:34:46.636Z,12.14
2018-03-25T11:37:14.422Z,12.10
2018-03-25T11:39:42.195Z,12.98
2018-03-25T11:42:10.075Z,12.66
2018-03-25T11:44:38.261Z,12.74
2018-03-25T11:47:06.037Z,12.87
2018-03-25T11:49:33.814Z,13.02
2018-03-25T11:52:01.479Z,12.41
2018-03-25T11:54:29.071Z,12.83
2018-03-25T11:56:56.844Z,12.88
2018-03-25T11:59:24.728Z,12.72
2018-03-25T12:01:52.327Z,12.07
2018-03-25T12:04:19.983Z,12.06
2018-03-25T12:06:48.061Z,13.18
2018-03-25T12:09:15.730Z,13.60
2018-03-25T12:11:43.515Z,13.19
2018-03-25T12:14:11.177Z,13.52
2018-03-25T12:16:38.815Z,13.60
2018-03-25T12:19:06.433Z,13.56
2018-03-25T12:21:34.108Z,13.14
2018-03-25T12:24:01.704Z,13.03
2018-03-25T12:26:29.356Z,13.57
2018-03-25T12:28:57.093Z,13.17
2018-03-25T12:31:24.703Z,12.46
2018-03-25T12:33:52.384Z,12.75
2018-03-25T12:36:20.167Z,13.45
2018-03-25T12:38:47.758Z,12.76
2018-03-25T12:41:15.782Z,12.18
2018-03-25T12:43:43.383Z,13.15
2018-03-25T12:46:10.973Z,12.71
2018-03-25T12:48:38.847Z,12.86
2018-03-25T12:53:40.550Z,13.18
2018-03-25T12:56:08.333Z,13.73
2018-03-25T12:58:36.045Z,13.54
2018-03-25T13:01:03.882Z,13.13
2018-03-25T13:03:31.470Z,12.15
2018-03-25T13:05:59.119Z,12.97
2018-03-25T13:08:26.710Z,12.62
2018-03-25T13:10:54.483Z,12.13
2018-03-25T13:13:22.564Z,13.01
2018-03-25T13:15:50.325Z,12.43
2018-03-25T13:18:18.079Z,13.43
2018-03-25T13:20:45.870Z,13.33
2018-03-25T13:23:13.682Z,12.94
2018-03-25T13:25:41.868Z,12.99
2018-03-25T13:28:09.546Z,12.55
2018-03-25T13:30:37.208Z,12.19
2018-03-25T13:33:04.954Z,12.23
2018-03-25T13:35:32.776Z,12.05
2018-03-25T13:38:00.512Z,11.79
2018-03-25T13:40:28.328Z,12.07
2018-03-25T13:42:55.997Z,12.41
2018-03-25T13:45:23.738Z,12.42
2018-03-25T13:47:51.738Z,12.15
2018-03-25T13:50:19.544Z,12.14
2018-03-25T13:52:47.222Z,12.16
2018-03-25T13:55:15.103Z,12.05
2018-03-25T13:57:42.819Z,11.96
2018-03-25T14:00:10.439Z,11.84
2018-03-25T14:02:38.227Z,11.82
2018-03-25T14:05:06.106Z,11.72
2018-03-25T14:07:33.836Z,11.70
2018-03-25T14:10:01.629Z,11.72
2018-03-25T14:12:29.439Z,11.62
2018-03-25T14:14:57.220Z,11.16
2018-03-25T14:17:24.830Z,10.89
2018-03-25T14:19:52.980Z,10.91
2018-03-25T14:22:20.578Z,10.92
2018-03-25T14:24:48.304Z,10.81
2018-03-25T14:27:16.111Z,10.70
2018-03-25T14:29:43.889Z,10.70
2018-03-25T14:32:11.728Z,10.66
2018-03-25T14:34:39.440Z,10.74
2018-03-25T14:37:07.219Z,10.73
2018-03-25T14:39:34.890Z,10.27
2018-03-25T14:42:02.773Z,10.57
2018-03-25T14:44:30.450Z,10.53
2018-03-25T14:46:58.174Z,10.77
2018-03-25T14:49:26.007Z,10.64
2018-03-25T14:51:53.783Z,10.84
2018-03-25T14:54:21.449Z,10.97
2018-03-25T14:56:49.341Z,11.06
2018-03-25T14:59:17.119Z,10.87
2018-03-25T15:01:44.788Z,11.06
2018-03-25T15:04:12.520Z,11.03
2018-03-25T15:06:40.140Z,10.94
2018-03-25T15:09:08.232Z,10.85
2018-03-25T15:11:35.901Z,10.86
2018-03-25T15:14:03.736Z,10.87
2018-03-25T15:16:31.459Z,10.95
2018-03-25T15:18:59.046Z,10.98
2018-03-25T15:21:26.915Z,11.00
2018-03-25T15:23:54.502Z,10.90
2018-03-25T15:26:22.100Z,11.02
2018-03-25T15:28:49.945Z,11.07
2018-03-25T15:31:17.612Z,10.89
2018-03-25T15:33:45.296Z,10.85
2018-03-25T15:36:14.270Z,10.80
2018-03-25T15:38:42.025Z,10.69
2018-03-25T15:41:09.751Z,10.81
2018-03-25T15:43:37.419Z,10.75
2018-03-25T15:46:05.058Z,10.70
2018-03-25T15:48:32.731Z,10.82
2018-03-25T15:51:00.393Z,10.92
2018-03-25T15:53:28.024Z,10.76
2018-03-25T15:55:55.805Z,10.93
2018-03-25T15:58:23.584Z,11.02
2018-03-25T16:00:51.359Z,10.95
2018-03-25T16:03:19.141Z,10.93
2018-03-25T16:05:46.812Z,10.88
2018-03-25T16:08:14.489Z,10.73
2018-03-25T16:10:42.219Z,10.90
2018-03-25T16:13:10.353Z,10.74
2018-03-25T16:15:38.020Z,10.80
2018-03-25T16:18:05.685Z,10.77
2018-03-25T16:20:33.684Z,10.72
2018-03-25T16:23:01.294Z,10.72
2018-03-25T16:25:28.991Z,10.72
2018-03-25T16:27:56.686Z,10.70
2018-03-25T16:30:24.496Z,10.74
2018-03-25T16:32:52.217Z,10.62
2018-03-25T16:35:19.863Z,10.49
2018-03-25T16:37:48.033Z,10.37
2018-03-25T16:40:15.770Z,10.36
2018-03-25T16:42:43.363Z,10.28
2018-03-25T16:45:11.100Z,10.37
2018-03-25T16:47:38.941Z,10.36
2018-03-25T16:50:06.720Z,10.21
2018-03-25T16:52:34.391Z,10.13
2018-03-25T16:55:02.340Z,10.05
2018-03-25T16:57:29.947Z,10.11
2018-03-25T16:59:57.729Z,10.15
2018-03-25T17:02:25.913Z,10.07
2018-03-25T17:04:53.634Z,9.97
2018-03-25T17:07:21.264Z,10.05
2018-03-25T17:09:48.940Z,10.01
2018-03-25T17:12:16.714Z,9.86
2018-03-25T17:14:44.388Z,9.81
2018-03-25T17:17:12.275Z,9.70
2018-03-25T17:19:39.940Z,9.62
2018-03-25T17:22:07.621Z,9.48
2018-03-25T17:24:35.247Z,9.44
2018-03-25T17:27:03.077Z,9.32
2018-03-25T17:29:30.857Z,9.20
2018-03-25T17:31:58.633Z,9.21
2018-03-25T17:34:26.411Z,9.09
2018-03-25T17:36:54.088Z,9.05
2018-03-25T17:39:21.915Z,9.03
2018-03-25T17:41:49.640Z,9.06
2018-03-25T17:44:17.214Z,8.96
2018-03-25T17:46:44.889Z,8.94
2018-03-25T17:49:12.666Z,8.93
2018-03-25T17:51:40.398Z,8.83
2018-03-25T17:54:08.019Z,8.81
2018-03-25T17:56:35.610Z,8.84
2018-03-25T17:59:03.362Z,8.80
2018-03-25T18:01:31.148Z,8.78
2018-03-25T18:03:58.925Z,8.83
2018-03-25T18:06:27.112Z,8.71
2018-03-25T18:08:54.840Z,8.68
2018-03-25T18:11:22.568Z,8.58
2018-03-25T18:13:50.449Z,8.45
2018-03-25T18:16:18.123Z,8.44
2018-03-25T18:18:45.902Z,8.46
2018-03-25T18:21:13.577Z,8.49
2018-03-25T18:23:41.260Z,8.38
2018-03-25T18:26:09.018Z,8.42
2018-03-25T18:28:36.775Z,8.41
2018-03-25T18:31:04.540Z,8.37
2018-03-25T18:33:32.156Z,8.31
2018-03-25T18:35:59.833Z,8.29
2018-03-25T18:38:27.719Z,8.30
2018-03-25T18:40:55.492Z,8.24
2018-03-25T18:43:23.220Z,8.20
2018-03-25T18:45:50.950Z,8.16
2018-03-25T18:48:18.720Z,8.19
2018-03-25T18:50:46.398Z,8.13
2018-03-25T18:53:14.178Z,8.13
2018-03-25T18:55:42.139Z,8.05
2018-03-25T18:58:09.822Z,7.97
2018-03-25T19:00:37.615Z,7.99
2018-03-25T19:03:05.390Z,7.92
2018-03-25T19:05:33.122Z,7.93
2018-03-25T19:08:00.841Z,8.02
2018-03-25T19:10:28.604Z,7.89
2018-03-25T19:12:59.134Z,7.83
2018-03-25T19:15:27.144Z,7.73
2018-03-25T19:17:54.752Z,7.66
2018-03-25T19:20:22.425Z,7.67
2018-03-25T19:22:50.175Z,7.59
2018-03-25T19:25:17.902Z,7.59
2018-03-25T19:27:45.573Z,7.56
2018-03-25T19:30:13.306Z,7.54
2018-03-25T19:32:41.025Z,7.50
2018-03-25T19:35:08.655Z,7.41
2018-03-25T19:37:36.433Z,7.30
2018-03-25T19:40:04.314Z,7.32
2018-03-25T19:42:32.091Z,7.34
2018-03-25T19:44:59.835Z,7.25
2018-03-25T19:47:27.545Z,7.14
2018-03-25T19:49:55.180Z,7.08
2018-03-25T19:52:22.892Z,7.12
2018-03-25T20:08:10.292Z,6.93
2018-03-25T20:10:37.966Z,6.92
2018-03-25T20:13:05.635Z,6.96
2018-03-25T20:15:33.315Z,7.03
2018-03-25T20:18:01.098Z,6.92
2018-03-25T20:20:28.880Z,6.97
2018-03-25T20:22:56.537Z,6.97
2018-03-25T20:25:24.219Z,6.95
2018-03-25T20:27:52.007Z,6.90
2018-03-25T20:30:19.786Z,6.91
2018-03-25T20:32:47.769Z,6.84
2018-03-25T20:35:15.444Z,6.79
2018-03-25T20:37:43.223Z,6.71
2018-03-25T20:40:10.998Z,6.72
2018-03-25T20:42:38.662Z,6.74
2018-03-25T20:45:06.452Z,6.69
2018-03-25T20:47:34.125Z,6.65
2018-03-25T20:50:02.013Z,6.59
2018-03-25T20:52:29.675Z,6.52
2018-03-25T20:54:57.346Z,6.54
2018-03-25T20:57:24.998Z,6.46
2018-03-25T20:59:52.608Z,6.30
2018-03-25T21:02:20.230Z,6.30
2018-03-25T21:04:47.922Z,6.31
2018-03-25T21:07:15.627Z,6.32
2018-03-25T21:09:43.415Z,6.26
2018-03-25T21:12:11.087Z,6.23
2018-03-25T21:14:38.867Z,6.14
2018-03-25T21:17:06.644Z,6.12
2018-03-25T21:19:34.316Z,6.02
2018-03-25T21:22:02.099Z,6.01
2018-03-25T21:24:29.927Z,5.89
2018-03-25T21:26:57.759Z,5.87
2018-03-25T21:29:25.538Z,5.78
2018-03-25T21:31:53.217Z,5.73
2018-03-25T21:34:20.879Z,5.58
2018-03-25T21:36:48.829Z,5.59
2018-03-25T21:39:16.436Z,5.43
2018-03-25T21:41:44.075Z,5.37
2018-03-25T21:44:11.792Z,5.10
2018-03-25T21:46:39.866Z,5.24
2018-03-25T21:49:07.657Z,5.11
2018-03-25T21:51:35.264Z,5.14
2018-03-25T21:54:02.899Z,5.00
2018-03-25T21:56:30.685Z,5.08
2018-03-25T21:58:58.278Z,5.17
2018-03-25T22:01:26.033Z,5.21
2018-03-25T22:03:53.791Z,5.10
2018-03-25T22:06:21.557Z,5.07
2018-03-25T22:08:49.569Z,5.04
2018-03-25T22:11:17.154Z,5.09
2018-03-25T22:13:44.747Z,5.04
2018-03-25T22:16:12.500Z,5.04
2018-03-25T22:18:52.054Z,4.98
2018-03-25T22:21:19.732Z,5.01
2018-03-25T22:23:47.403Z,4.89
2018-03-25T22:26:15.071Z,4.93
2018-03-25T22:28:42.742Z,4.74
2018-03-25T22:31:10.430Z,4.56
2018-03-25T22:33:38.617Z,4.42
2018-03-25T22:36:06.293Z,4.23
2018-03-25T22:38:34.018Z,4.32
2018-03-25T22:41:01.750Z,3.98
2018-03-25T22:43:29.525Z,3.89
2018-03-25T22:45:57.190Z,4.02
2018-03-25T22:48:24.981Z,4.16
2018-03-25T22:50:52.761Z,4.13
2018-03-25T22:53:20.495Z,3.90
2018-03-25T22:55:48.211Z,3.69
2018-03-25T22:58:15.878Z,3.76
2018-03-25T23:00:43.768Z,3.75
2018-03-25T23:03:11.437Z,3.67
2018-03-25T23:05:39.220Z,3.66
2018-03-25T23:08:06.945Z,3.72
2018-03-25T23:10:35.082Z,3.67
2018-03-25T23:13:02.864Z,3.48
2018-03-25T23:15:30.531Z,3.33
2018-03-25T23:17:58.190Z,3.48
2018-03-25T23:20:25.990Z,3.60
2018-03-25T23:22:53.666Z,3.41
2018-03-25T23:25:21.289Z,3.40
2018-03-25T23:27:49.007Z,3.27
2018-03-25T23:30:16.598Z,3.16
2018-03-25T23:32:44.207Z,3.16
2018-03-25T23:35:12.400Z,3.48
2018-03-25T23:37:40.230Z,3.49
2018-03-25T23:40:08.008Z,3.41
2018-03-25T23:42:35.785Z,3.25
2018-03-25T23:45:03.449Z,3.28
2018-03-25T23:47:31.126Z,3.21
2018-03-25T23:49:58.816Z,3.20
2018-03-25T23:52:26.489Z,3.24
2018-03-25T23:54:54.171Z,3.16
2018-03-25T23:57:22.046Z,3.10
2018-03-25T23:59:49.722Z,3.07
